Time;durP1;ratioP1;P1;durP2;ratioP2;P2;SDS_P1;SDS_P2;PMS_P1;PMS_P2;Temp;Humidity;BMP_temperature;BMP_pressure;BME280_temperature;BME280_humidity;BME280_pressure;Samples;Min_cycle;Max_cycle;Signal;HPM_P1;HPM_P2
2021/05/22 00:01:51;;;;;;;3.75;2.85;;;23.10;45.20;;;;;;6159080;28;80873;-67
2021/05/22 00:04:52;;;;;;;3.72;2.45;;;23.10;45.20;;;;;;6182236;28;80506;-67
2021/05/22 00:07:52;;;;;;;3.13;2.28;;;23.00;45.30;;;;;;6182552;28;80156;-67
2021/05/22 00:10:53;;;;;;;3.35;2.67;;;23.00;45.50;;;;;;6158614;28;80650;-68
2021/05/22 00:13:53;;;;;;;4.30;2.70;;;23.00;45.30;;;;;;6156645;28;80659;-67
2021/05/22 00:16:54;;;;;;;4.47;2.72;;;23.00;45.30;;;;;;6157791;28;80530;-68
2021/05/22 00:19:54;;;;;;;4.47;2.40;;;23.10;45.40;;;;;;6158495;28;82571;-67
2021/05/22 00:22:55;;;;;;;4.05;2.72;;;23.00;45.40;;;;;;6157173;28;80773;-66
2021/05/22 00:25:55;;;;;;;3.85;2.47;;;23.00;45.40;;;;;;6158860;28;80449;-66
2021/05/22 00:28:56;;;;;;;3.45;2.72;;;23.00;45.40;;;;;;6177298;28;80557;-67
2021/05/22 00:31:56;;;;;;;3.35;2.60;;;23.00;45.30;;;;;;6195725;28;80489;-67
2021/05/22 00:34:58;;;;;;;4.30;2.58;;;23.00;45.20;;;;;;6180660;28;80554;-67
2021/05/22 00:37:58;;;;;;;3.67;2.30;;;23.00;45.30;;;;;;6160285;28;80595;-67
2021/05/22 00:40:59;;;;;;;3.92;2.30;;;23.00;45.40;;;;;;6181206;28;82929;-67
2021/05/22 00:43:59;;;;;;;7.28;2.72;;;23.00;45.30;;;;;;6180167;28;80962;-67
2021/05/22 00:47:00;;;;;;;3.88;2.83;;;23.10;45.50;;;;;;6182011;28;80962;-68
2021/05/22 00:50:00;;;;;;;2.60;2.30;;;23.00;45.40;;;;;;6179710;28;80638;-67
2021/05/22 00:53:01;;;;;;;2.55;2.00;;;23.00;45.50;;;;;;6158993;28;81878;-67
2021/05/22 00:56:01;;;;;;;4.95;2.67;;;23.00;45.40;;;;;;6181800;28;80620;-68
2021/05/22 00:59:02;;;;;;;3.35;2.45;;;23.00;45.60;;;;;;6180752;28;81271;-66
2021/05/22 01:02:02;;;;;;;4.10;2.47;;;23.00;45.40;;;;;;6178545;28;80643;-65
2021/05/22 01:05:03;;;;;;;4.20;2.50;;;23.00;45.60;;;;;;6155000;28;80709;-65
2021/05/22 01:08:03;;;;;;;3.45;2.38;;;23.00;45.50;;;;;;6155960;28;81357;-65
2021/05/22 01:11:04;;;;;;;4.15;2.70;;;23.00;45.50;;;;;;6158347;28;87581;-65
2021/05/22 01:14:04;;;;;;;3.03;2.28;;;23.00;45.50;;;;;;6181366;28;80494;-65
2021/05/22 01:17:05;;;;;;;7.38;2.80;;;23.00;45.80;;;;;;6180626;28;80330;-65
2021/05/22 01:20:06;;;;;;;3.90;2.45;;;23.00;45.70;;;;;;6179765;28;80328;-65
2021/05/22 01:23:07;;;;;;;3.55;2.45;;;23.00;45.60;;;;;;6179510;28;83028;-65
2021/05/22 01:26:07;;;;;;;4.13;2.50;;;23.00;45.60;;;;;;6193327;28;81534;-65
2021/05/22 01:29:08;;;;;;;4.22;1.90;;;23.00;45.50;;;;;;6180798;28;80573;-65
2021/05/22 01:32:08;;;;;;;4.63;2.63;;;23.00;45.40;;;;;;6172853;28;81976;-67
2021/05/22 01:35:09;;;;;;;5.70;2.60;;;23.00;45.60;;;;;;6158021;28;81671;-67
2021/05/22 01:38:09;;;;;;;4.10;2.38;;;23.00;45.50;;;;;;6177906;28;80648;-67
2021/05/22 01:41:10;;;;;;;5.18;2.60;;;23.00;45.60;;;;;;6157091;28;81626;-67
2021/05/22 01:44:10;;;;;;;4.65;2.55;;;23.00;45.60;;;;;;6179520;28;80210;-66
2021/05/22 01:47:11;;;;;;;3.33;2.53;;;22.90;45.30;;;;;;6181130;28;82309;-66
2021/05/22 01:50:11;;;;;;;4.22;2.58;;;23.00;45.60;;;;;;6172096;28;81391;-65
2021/05/22 01:53:12;;;;;;;4.70;2.58;;;23.00;45.60;;;;;;6179824;28;82281;-65
2021/05/22 01:56:12;;;;;;;4.25;2.38;;;23.00;45.50;;;;;;6177352;28;81269;-67
2021/05/22 01:59:13;;;;;;;4.07;2.50;;;23.00;45.40;;;;;;6156863;28;81036;-66
2021/05/22 02:02:13;;;;;;;3.45;2.55;;;23.00;45.50;;;;;;6155977;28;80224;-66
2021/05/22 02:05:14;;;;;;;4.15;2.65;;;22.90;45.20;;;;;;6142102;28;82486;-67
2021/05/22 02:08:14;;;;;;;4.28;2.85;;;22.90;45.30;;;;;;6176935;28;80772;-66
2021/05/22 02:11:15;;;;;;;3.28;2.55;;;22.90;45.30;;;;;;6160416;28;80570;-66
2021/05/22 02:14:15;;;;;;;5.15;3.05;;;22.90;45.50;;;;;;6169336;28;80366;-66
2021/05/22 02:17:16;;;;;;;3.38;2.53;;;22.90;45.20;;;;;;6179022;28;80447;-66
2021/05/22 02:20:16;;;;;;;5.28;2.70;;;22.90;45.30;;;;;;6175198;28;81543;-67
2021/05/22 02:23:17;;;;;;;3.95;2.40;;;22.90;45.30;;;;;;6175837;28;82778;-68
2021/05/22 02:26:17;;;;;;;5.28;2.55;;;22.90;45.50;;;;;;6155975;28;80592;-67
2021/05/22 02:29:18;;;;;;;4.82;2.53;;;22.90;45.60;;;;;;6159634;28;81500;-66
2021/05/22 02:32:18;;;;;;;5.00;2.53;;;22.90;45.40;;;;;;6164600;28;81339;-67
2021/05/22 02:35:19;;;;;;;6.93;3.30;;;22.90;45.50;;;;;;6183483;28;80408;-66
2021/05/22 02:38:19;;;;;;;4.35;2.72;;;22.90;45.50;;;;;;6183300;28;81502;-65
2021/05/22 02:41:20;;;;;;;5.05;2.72;;;22.90;45.30;;;;;;6183289;28;83287;-66
2021/05/22 02:44:21;;;;;;;4.40;2.50;;;22.90;45.40;;;;;;6177981;28;80496;-67
2021/05/22 02:47:21;;;;;;;5.20;2.65;;;22.90;45.30;;;;;;6158090;28;81540;-66
2021/05/22 02:50:22;;;;;;;5.55;3.03;;;22.90;45.20;;;;;;6164589;28;81197;-67
2021/05/22 02:53:23;;;;;;;4.90;2.70;;;22.90;45.60;;;;;;6179745;28;80808;-67
2021/05/22 02:56:23;;;;;;;6.18;2.55;;;22.90;45.10;;;;;;6150459;28;80765;-67
2021/05/22 02:59:24;;;;;;;3.83;2.45;;;22.90;45.20;;;;;;6163002;28;80487;-68
2021/05/22 03:02:24;;;;;;;4.20;2.40;;;22.90;45.20;;;;;;6177335;28;82970;-68
2021/05/22 03:05:25;;;;;;;5.15;3.03;;;22.90;45.30;;;;;;6162622;28;83581;-68
2021/05/22 03:08:25;;;;;;;3.80;2.20;;;22.90;45.20;;;;;;6183561;28;81577;-68
2021/05/22 03:11:26;;;;;;;9.07;2.67;;;22.90;45.30;;;;;;6177270;28;80716;-68
2021/05/22 03:14:26;;;;;;;3.72;2.33;;;22.90;45.40;;;;;;6159327;28;80399;-67
2021/05/22 03:17:27;;;;;;;2.70;2.28;;;22.90;45.20;;;;;;6164760;28;80427;-67
2021/05/22 03:20:27;;;;;;;4.60;2.60;;;22.90;45.10;;;;;;6183554;28;80788;-67
2021/05/22 03:23:28;;;;;;;2.85;2.53;;;22.90;45.00;;;;;;6183644;28;80404;-67
2021/05/22 03:26:28;;;;;;;4.30;2.65;;;22.90;45.00;;;;;;6169000;28;81254;-67
2021/05/22 03:29:29;;;;;;;4.57;2.90;;;22.90;45.30;;;;;;6160024;28;80541;-67
2021/05/22 03:32:29;;;;;;;4.03;2.55;;;22.90;45.30;;;;;;6177032;28;81184;-68
2021/05/22 03:35:30;;;;;;;2.75;2.30;;;22.90;45.20;;;;;;6158364;28;81038;-68
2021/05/22 03:38:30;;;;;;;3.70;2.45;;;22.90;45.20;;;;;;6165037;28;80243;-67
2021/05/22 03:41:31;;;;;;;3.50;2.45;;;22.90;45.30;;;;;;6162172;28;80702;-67
2021/05/22 03:44:31;;;;;;;5.38;2.85;;;22.90;45.20;;;;;;6165062;28;80396;-67
2021/05/22 03:47:33;;;;;;;4.90;2.42;;;22.90;45.30;;;;;;6181897;28;80156;-67
2021/05/22 03:50:33;;;;;;;2.50;2.00;;;22.90;45.10;;;;;;6180528;28;81612;-67
2021/05/22 03:53:34;;;;;;;8.35;2.50;;;22.90;45.10;;;;;;6173212;28;83137;-67
2021/05/22 03:56:34;;;;;;;5.32;2.38;;;22.90;45.10;;;;;;6158342;28;80759;-68
2021/05/22 03:59:35;;;;;;;4.20;2.60;;;22.90;45.00;;;;;;6156227;28;83682;-66
2021/05/22 04:02:35;;;;;;;3.58;2.30;;;22.90;45.20;;;;;;6166470;28;80177;-66
2021/05/22 04:05:36;;;;;;;4.55;2.78;;;22.90;45.20;;;;;;6176424;28;81029;-66
2021/05/22 04:08:36;;;;;;;3.15;2.45;;;22.90;45.30;;;;;;6160269;28;81149;-66
2021/05/22 04:11:37;;;;;;;4.50;2.58;;;22.90;45.20;;;;;;6150996;28;81480;-67
2021/05/22 04:14:38;;;;;;;4.07;2.63;;;22.90;45.00;;;;;;6156800;28;80359;-68
2021/05/22 04:17:38;;;;;;;5.15;2.60;;;22.80;45.10;;;;;;6144772;28;81426;-68
2021/05/22 04:20:39;;;;;;;5.70;2.50;;;22.90;45.00;;;;;;6169663;28;80752;-68
2021/05/22 04:23:40;;;;;;;6.00;2.50;;;22.90;45.10;;;;;;6165291;28;80637;-67
2021/05/22 04:26:41;;;;;;;4.30;2.40;;;22.80;45.40;;;;;;6167233;28;80626;-67
2021/05/22 04:29:41;;;;;;;8.25;3.17;;;22.90;45.20;;;;;;6165576;28;80398;-67
2021/05/22 04:32:42;;;;;;;5.57;2.90;;;22.90;45.20;;;;;;6180068;28;80126;-65
2021/05/22 04:35:42;;;;;;;6.43;2.50;;;22.90;45.70;;;;;;6188282;28;81182;-64
2021/05/22 04:38:43;;;;;;;8.00;2.92;;;22.90;45.60;;;;;;6180685;28;80764;-62
2021/05/22 04:41:43;;;;;;;5.97;2.38;;;22.90;45.30;;;;;;6174032;28;80755;-64
2021/05/22 04:44:44;;;;;;;5.95;3.05;;;22.80;44.90;;;;;;6180209;28;80899;-65
2021/05/22 04:47:45;;;;;;;8.88;3.15;;;22.90;45.00;;;;;;6170359;28;81340;-66
2021/05/22 04:50:46;;;;;;;6.15;2.92;;;22.90;44.80;;;;;;6163216;28;81611;-66
2021/05/22 04:53:47;;;;;;;5.07;2.63;;;22.90;46.10;;;;;;6181890;28;80909;-65
2021/05/22 04:56:47;;;;;;;6.63;3.03;;;22.90;45.40;;;;;;6172233;28;80380;-64
2021/05/22 04:59:48;;;;;;;4.85;2.85;;;22.90;45.40;;;;;;6161453;28;80514;-69
2021/05/22 05:02:48;;;;;;;6.30;3.38;;;22.90;45.90;;;;;;6150736;28;81053;-64
2021/05/22 05:05:49;;;;;;;10.65;3.83;;;22.90;45.10;;;;;;6166361;28;80534;-65
2021/05/22 05:08:50;;;;;;;4.75;2.97;;;22.90;45.10;;;;;;6185708;28;81524;-66
2021/05/22 05:11:50;;;;;;;6.78;2.50;;;22.90;45.10;;;;;;6166072;28;80369;-63
2021/05/22 05:14:51;;;;;;;12.15;3.30;;;22.90;45.00;;;;;;6181843;28;80553;-65
2021/05/22 05:17:51;;;;;;;6.07;2.55;;;22.90;46.20;;;;;;6181084;28;80945;-66
2021/05/22 05:20:52;;;;;;;6.43;3.22;;;22.90;46.30;;;;;;6171771;28;80151;-66
2021/05/22 05:23:52;;;;;;;6.32;2.88;;;23.00;46.40;;;;;;6149255;28;80539;-65
2021/05/22 05:26:53;;;;;;;5.20;2.92;;;23.00;46.60;;;;;;6155687;28;80616;-65
2021/05/22 05:29:53;;;;;;;7.82;3.72;;;23.00;47.00;;;;;;6160921;28;81193;-63
2021/05/22 05:32:54;;;;;;;10.82;3.28;;;23.10;47.30;;;;;;6180597;28;80650;-65
2021/05/22 05:35:55;;;;;;;8.05;3.38;;;23.10;47.10;;;;;;6166079;28;80596;-66
2021/05/22 05:38:55;;;;;;;7.60;3.42;;;23.10;47.30;;;;;;6154272;28;80272;-66
2021/05/22 05:41:56;;;;;;;15.98;3.92;;;23.10;47.40;;;;;;6161117;28;83156;-67
2021/05/22 05:44:56;;;;;;;7.70;3.38;;;23.10;47.50;;;;;;6175819;28;80331;-67
2021/05/22 05:47:57;;;;;;;7.65;3.53;;;23.20;47.60;;;;;;6178780;28;83965;-65
2021/05/22 05:50:58;;;;;;;8.43;3.20;;;23.20;47.50;;;;;;6169517;28;80444;-67
2021/05/22 05:53:58;;;;;;;9.20;3.25;;;23.20;47.40;;;;;;6155869;28;80371;-64
2021/05/22 05:56:59;;;;;;;6.65;3.38;;;23.20;47.30;;;;;;6154525;28;81957;-69
2021/05/22 06:00:00;;;;;;;7.43;3.38;;;23.20;47.40;;;;;;6154765;28;82496;-68
2021/05/22 06:03:00;;;;;;;5.43;3.20;;;23.20;47.60;;;;;;6158801;28;80469;-67
2021/05/22 06:06:01;;;;;;;6.05;2.85;;;23.20;47.20;;;;;;6173587;28;80754;-67
2021/05/22 06:09:02;;;;;;;6.65;2.70;;;23.20;47.50;;;;;;6151010;28;80415;-68
2021/05/22 06:12:03;;;;;;;7.75;2.88;;;23.20;48.10;;;;;;6160123;28;80782;-68
2021/05/22 06:15:24;;;;;;;5.72;2.97;;;23.20;48.30;;;;;;6164499;28;81163;-68
2021/05/22 06:18:24;;;;;;;7.65;2.55;;;23.20;48.10;;;;;;6186632;28;81302;-68
2021/05/22 06:21:25;;;;;;;8.45;2.83;;;23.20;48.00;;;;;;6170512;28;80433;-71
2021/05/22 06:24:26;;;;;;;17.35;4.07;;;23.20;48.50;;;;;;6172254;28;81453;-70
2021/05/22 06:27:26;;;;;;;4.82;2.70;;;23.30;48.10;;;;;;6183912;28;80471;-70
2021/05/22 06:30:27;;;;;;;6.93;2.92;;;23.30;48.10;;;;;;6170499;28;81369;-70
2021/05/22 06:33:27;;;;;;;4.22;2.78;;;23.30;48.10;;;;;;6155941;28;80177;-70
2021/05/22 06:36:30;;;;;;;4.65;2.78;;;23.20;47.90;;;;;;6158224;28;81686;-70
2021/05/22 06:39:30;;;;;;;4.43;2.92;;;23.20;47.90;;;;;;6159817;28;80445;-70
2021/05/22 06:42:32;;;;;;;7.55;3.50;;;23.20;47.80;;;;;;6170701;28;81730;-69
2021/05/22 06:45:44;;;;;;;8.25;3.08;;;23.20;47.90;;;;;;6169301;28;80678;-70
2021/05/22 06:48:44;;;;;;;6.00;3.33;;;23.20;48.60;;;;;;6154886;28;82080;-69
2021/05/22 06:51:45;;;;;;;6.10;3.33;;;23.20;48.40;;;;;;6155473;28;80349;-69
2021/05/22 06:54:46;;;;;;;15.65;3.00;;;23.20;48.30;;;;;;6174197;28;80569;-69
2021/05/22 06:57:46;;;;;;;8.10;2.90;;;23.20;48.60;;;;;;6180380;28;80495;-69
2021/05/22 07:00:47;;;;;;;9.60;3.00;;;23.20;48.90;;;;;;6163631;28;80417;-70
2021/05/22 07:03:47;;;;;;;9.85;3.13;;;23.20;49.00;;;;;;6174811;28;80470;-70
2021/05/22 07:06:48;;;;;;;9.68;3.15;;;23.30;49.10;;;;;;6159394;28;81970;-70
2021/05/22 07:09:48;;;;;;;5.15;3.13;;;23.30;48.90;;;;;;6151215;28;81086;-69
2021/05/22 07:12:49;;;;;;;4.50;2.90;;;23.30;48.90;;;;;;6159194;28;80890;-69
2021/05/22 07:15:49;;;;;;;5.20;2.85;;;23.30;48.60;;;;;;6181714;28;82174;-69
2021/05/22 07:18:50;;;;;;;4.80;3.03;;;23.30;48.90;;;;;;6181829;28;80641;-69
2021/05/22 07:21:51;;;;;;;7.47;2.97;;;23.30;48.60;;;;;;6166260;28;80604;-69
2021/05/22 07:24:51;;;;;;;4.90;2.65;;;23.30;48.20;;;;;;6157038;28;80380;-69
2021/05/22 07:27:53;;;;;;;5.40;2.85;;;23.30;48.30;;;;;;6149192;28;80293;-69
2021/05/22 07:30:53;;;;;;;95.53;31.02;;;23.20;48.20;;;;;;6168143;28;81147;-69
2021/05/22 07:33:55;;;;;;;330.05;104.53;;;23.20;48.70;;;;;;6152702;28;83599;-69
2021/05/22 07:36:55;;;;;;;343.08;109.63;;;23.20;48.40;;;;;;6144465;28;85266;-70
2021/05/22 07:39:57;;;;;;;282.17;98.13;;;23.30;49.00;;;;;;6151827;27;85769;-71
2021/05/22 07:42:57;;;;;;;265.25;87.00;;;23.30;49.10;;;;;;6181792;28;85423;-68
2021/05/22 07:45:58;;;;;;;224.48;71.03;;;23.30;49.00;;;;;;6146523;28;83364;-68
2021/05/22 07:48:58;;;;;;;197.68;63.33;;;23.30;49.20;;;;;;6152521;28;83245;-68
2021/05/22 07:51:59;;;;;;;179.25;58.72;;;23.30;49.00;;;;;;6172049;28;85152;-68
2021/05/22 07:54:59;;;;;;;156.38;50.85;;;23.30;49.60;;;;;;6168172;28;83498;-67
2021/05/22 07:58:00;;;;;;;140.68;50.58;;;23.40;49.30;;;;;;6172734;28;84717;-67
2021/05/22 08:01:00;;;;;;;134.77;43.25;;;23.30;49.10;;;;;;6158635;28;83845;-66
2021/05/22 08:04:01;;;;;;;122.25;38.20;;;23.40;48.70;;;;;;6152902;28;86003;-66
2021/05/22 08:07:01;;;;;;;99.50;35.65;;;23.40;48.40;;;;;;6147018;28;84552;-67
2021/05/22 08:10:02;;;;;;;92.47;34.05;;;23.40;48.50;;;;;;6169617;28;84033;-67
2021/05/22 08:13:03;;;;;;;90.88;31.73;;;23.30;48.30;;;;;;6154336;27;82760;-68
2021/05/22 08:16:04;;;;;;;86.00;31.15;;;23.40;48.40;;;;;;6151238;28;84210;-65
2021/05/22 08:19:04;;;;;;;71.20;25.17;;;23.30;48.10;;;;;;6153633;28;88771;-65
2021/05/22 08:22:05;;;;;;;69.85;22.83;;;23.40;48.10;;;;;;6170171;28;82770;-65
2021/05/22 08:25:05;;;;;;;65.55;22.98;;;23.30;47.80;;;;;;6176989;28;83380;-65
2021/05/22 08:28:07;;;;;;;64.88;22.83;;;23.30;48.30;;;;;;6158866;28;84348;-65
2021/05/22 08:31:07;;;;;;;65.07;20.85;;;23.30;48.90;;;;;;6153720;28;83217;-65
2021/05/22 08:34:08;;;;;;;60.45;21.58;;;23.30;51.40;;;;;;6153204;28;85246;-66
2021/05/22 08:37:11;;;;;;;50.03;19.45;;;23.30;51.60;;;;;;6169958;28;83081;-65
2021/05/22 08:40:11;;;;;;;55.13;17.73;;;23.30;52.60;;;;;;6150623;28;83868;-65
2021/05/22 08:43:12;;;;;;;46.17;15.93;;;23.30;52.60;;;;;;6171458;28;83501;-65
2021/05/22 08:46:12;;;;;;;44.80;16.90;;;23.30;52.70;;;;;;6157323;28;84715;-64
2021/05/22 08:49:14;;;;;;;45.60;16.48;;;23.30;54.00;;;;;;6152290;28;83345;-67
2021/05/22 08:52:14;;;;;;;42.72;14.32;;;23.30;54.50;;;;;;6187111;28;84100;-67
2021/05/22 08:55:15;;;;;;;39.58;13.80;;;23.30;53.40;;;;;;6175887;28;84432;-67
2021/05/22 08:58:15;;;;;;;28.92;12.80;;;23.30;52.90;;;;;;6158215;28;83321;-66
2021/05/22 09:01:16;;;;;;;32.40;11.30;;;23.20;52.20;;;;;;6153015;28;84084;-66
2021/05/22 09:04:16;;;;;;;25.77;11.13;;;23.30;50.70;;;;;;6174243;28;83735;-66
2021/05/22 09:07:17;;;;;;;29.58;9.40;;;23.30;50.00;;;;;;6186877;28;82862;-67
2021/05/22 09:10:17;;;;;;;22.25;8.50;;;23.30;49.10;;;;;;6160456;28;83349;-66
2021/05/22 09:13:18;;;;;;;22.98;8.55;;;23.30;49.00;;;;;;6166675;28;81887;-67
2021/05/22 09:16:20;;;;;;;19.75;7.95;;;23.30;48.70;;;;;;6170144;28;80473;-68
2021/05/22 09:19:21;;;;;;;19.88;7.60;;;23.30;50.10;;;;;;6179952;28;81652;-67
2021/05/22 09:22:23;;;;;;;21.90;7.70;;;23.20;49.30;;;;;;6180158;28;80505;-67
2021/05/22 09:25:24;;;;;;;18.58;7.75;;;23.20;48.80;;;;;;6155529;28;80393;-66
2021/05/22 09:28:25;;;;;;;27.88;9.80;;;23.20;50.10;;;;;;6156022;28;80360;-66
2021/05/22 09:31:27;;;;;;;39.53;11.77;;;23.20;50.50;;;;;;6151137;28;81052;-66
2021/05/22 09:34:27;;;;;;;46.65;12.27;;;23.20;50.90;;;;;;6147293;28;82694;-66
2021/05/22 09:37:28;;;;;;;42.47;12.95;;;23.20;50.60;;;;;;6152647;28;83047;-66
2021/05/22 09:40:28;;;;;;;50.33;13.63;;;23.20;50.90;;;;;;6152921;28;83054;-69
2021/05/22 09:43:29;;;;;;;42.42;13.20;;;23.20;51.50;;;;;;6144079;28;82858;-67
2021/05/22 09:46:29;;;;;;;43.35;12.25;;;23.20;51.90;;;;;;6172955;28;93322;-70
2021/05/22 09:49:30;;;;;;;33.88;11.52;;;23.20;52.40;;;;;;6186255;28;83115;-69
2021/05/22 09:52:30;;;;;;;36.90;11.38;;;23.20;52.30;;;;;;6176484;28;83412;-69
2021/05/22 09:55:31;;;;;;;33.63;11.63;;;23.30;51.50;;;;;;6146382;28;83391;-67
2021/05/22 09:58:31;;;;;;;31.98;10.43;;;23.30;51.70;;;;;;6171859;28;85780;-67
2021/05/22 10:01:32;;;;;;;28.50;9.82;;;23.30;51.50;;;;;;6173248;28;83094;-67
2021/05/22 10:04:32;;;;;;;26.73;9.20;;;23.30;51.30;;;;;;6178955;28;83021;-67
2021/05/22 10:07:33;;;;;;;22.05;8.23;;;23.30;51.10;;;;;;6179847;28;81138;-67
2021/05/22 10:10:33;;;;;;;24.58;7.93;;;23.30;51.00;;;;;;6158901;28;82089;-68
2021/05/22 10:13:35;;;;;;;25.70;8.80;;;23.20;51.70;;;;;;6178395;28;80643;-68
2021/05/22 10:16:36;;;;;;;23.48;8.02;;;23.20;51.30;;;;;;6180820;28;80542;-68
2021/05/22 10:19:36;;;;;;;21.45;6.20;;;23.20;51.30;;;;;;6165283;28;81710;-68
2021/05/22 10:22:37;;;;;;;22.38;7.68;;;23.30;51.00;;;;;;6164897;28;80541;-67
2021/05/22 10:25:38;;;;;;;17.00;7.03;;;23.20;50.70;;;;;;6174848;28;80382;-67
2021/05/22 10:28:38;;;;;;;17.50;7.18;;;23.20;51.00;;;;;;6192783;28;82459;-66
2021/05/22 10:31:39;;;;;;;21.42;7.93;;;23.20;51.10;;;;;;6169135;28;88256;-67
2021/05/22 10:34:39;;;;;;;12.45;5.47;;;23.20;50.90;;;;;;6154870;28;80879;-67
2021/05/22 10:37:46;;;;;;;17.58;5.40;;;23.20;51.30;;;;;;6166687;28;80326;-67
2021/05/22 10:40:46;;;;;;;15.48;6.05;;;23.20;51.60;;;;;;6179765;28;80620;-66
2021/05/22 10:43:47;;;;;;;11.57;5.38;;;23.20;51.30;;;;;;6177141;28;80741;-67
2021/05/22 10:46:48;;;;;;;12.57;5.55;;;23.20;51.10;;;;;;6174927;28;80784;-66
2021/05/22 10:49:51;;;;;;;14.98;5.75;;;23.20;51.20;;;;;;6197125;28;81757;-70
2021/05/22 10:52:52;;;;;;;16.60;4.93;;;23.10;51.50;;;;;;6178562;28;81771;-69
2021/05/22 10:55:52;;;;;;;10.88;4.25;;;23.10;51.60;;;;;;6164633;28;80663;-67
2021/05/22 10:58:53;;;;;;;11.27;4.68;;;23.20;50.90;;;;;;6169554;28;81531;-69
2021/05/22 11:01:53;;;;;;;8.07;4.55;;;23.20;51.00;;;;;;6179891;28;81554;-68
2021/05/22 11:04:56;;;;;;;9.05;4.80;;;23.20;50.80;;;;;;6188115;28;84212;-70
2021/05/22 11:07:56;;;;;;;28.92;11.88;;;23.20;50.90;;;;;;6182865;28;81666;-69
2021/05/22 11:11:00;;;;;;;83.95;36.45;;;23.20;50.80;;;;;;6175903;28;83232;-69
2021/05/22 11:14:01;;;;;;;122.45;60.20;;;23.20;51.10;;;;;;6175250;28;83803;-69
2021/05/22 11:17:01;;;;;;;138.93;70.53;;;23.20;51.40;;;;;;6170800;28;83944;-68
2021/05/22 11:20:03;;;;;;;177.35;85.38;;;23.20;52.10;;;;;;6160254;28;83937;-69
2021/05/22 11:23:04;;;;;;;178.90;88.32;;;23.20;51.70;;;;;;6162636;28;89719;-68
2021/05/22 11:26:04;;;;;;;164.23;83.90;;;23.20;51.50;;;;;;6163580;28;83327;-68
2021/05/22 11:29:05;;;;;;;156.32;77.70;;;23.30;51.00;;;;;;6167407;28;82800;-68
2021/05/22 11:32:05;;;;;;;141.70;69.35;;;23.20;51.40;;;;;;6177103;28;83211;-68
2021/05/22 11:35:06;;;;;;;135.93;66.72;;;23.20;51.10;;;;;;6180438;28;83195;-68
2021/05/22 11:38:06;;;;;;;126.47;63.47;;;23.30;50.90;;;;;;6167272;28;84348;-68
2021/05/22 11:41:07;;;;;;;118.78;57.20;;;23.30;50.80;;;;;;6155514;28;84396;-66
2021/05/22 11:44:07;;;;;;;109.85;54.58;;;23.20;50.90;;;;;;6168951;28;82954;-67
2021/05/22 11:47:08;;;;;;;111.03;51.85;;;23.30;51.20;;;;;;6164422;28;83463;-66
2021/05/22 11:50:08;;;;;;;104.60;48.97;;;23.30;51.80;;;;;;6169806;28;84441;-68
2021/05/22 11:53:09;;;;;;;95.03;45.38;;;23.30;52.40;;;;;;6159570;28;83984;-68
2021/05/22 11:56:12;;;;;;;84.63;40.55;;;23.20;52.30;;;;;;6165444;28;84132;-69
2021/05/22 11:59:13;;;;;;;83.20;39.25;;;23.20;52.60;;;;;;6178194;28;84338;-69
2021/05/22 12:02:13;;;;;;;76.32;36.58;;;23.20;52.70;;;;;;6179402;28;83006;-67
2021/05/22 12:05:14;;;;;;;68.30;33.33;;;23.20;52.50;;;;;;6158041;28;85690;-67
2021/05/22 12:08:14;;;;;;;69.93;31.13;;;23.20;52.20;;;;;;6166635;28;83393;-66
2021/05/22 12:11:16;;;;;;;55.05;27.65;;;23.30;51.70;;;;;;6162400;28;82908;-66
2021/05/22 12:14:16;;;;;;;56.13;25.90;;;23.30;52.00;;;;;;6157728;28;83601;-67
2021/05/22 12:17:17;;;;;;;59.17;25.70;;;23.30;52.00;;;;;;6166884;28;83080;-66
2021/05/22 12:20:18;;;;;;;47.28;23.60;;;23.30;51.80;;;;;;6175495;28;83229;-66
2021/05/22 12:23:18;;;;;;;47.08;23.40;;;23.30;51.90;;;;;;6174725;28;84051;-67
2021/05/22 12:26:19;;;;;;;46.60;21.67;;;23.30;52.40;;;;;;6176493;28;92750;-66
2021/05/22 12:29:19;;;;;;;40.03;19.02;;;23.30;52.00;;;;;;6177251;28;83488;-70
2021/05/22 12:32:20;;;;;;;33.78;18.35;;;23.30;52.20;;;;;;6154935;28;83970;-66
2021/05/22 12:35:20;;;;;;;38.72;19.13;;;23.30;52.50;;;;;;6168726;28;83004;-67
2021/05/22 12:38:21;;;;;;;34.47;17.27;;;23.40;53.30;;;;;;6178573;28;83121;-67
2021/05/22 12:41:21;;;;;;;36.47;16.95;;;23.40;53.30;;;;;;6171194;28;83047;-67
2021/05/22 12:44:22;;;;;;;30.55;14.90;;;23.40;53.50;;;;;;6178041;28;83186;-65
2021/05/22 12:47:23;;;;;;;28.70;15.13;;;23.40;53.60;;;;;;6158999;28;83334;-66
2021/05/22 12:50:24;;;;;;;29.98;15.07;;;23.30;53.00;;;;;;6149749;28;83047;-66
2021/05/22 12:53:24;;;;;;;29.08;15.45;;;23.30;53.00;;;;;;6152945;28;83389;-67
2021/05/22 12:56:25;;;;;;;31.23;15.02;;;23.40;52.40;;;;;;6169316;28;84794;-66
2021/05/22 12:59:26;;;;;;;135.93;47.60;;;23.40;52.30;;;;;;6158995;28;83316;-67
2021/05/22 13:02:27;;;;;;;248.57;88.20;;;23.40;52.00;;;;;;6154732;28;85328;-66
2021/05/22 13:05:27;;;;;;;222.57;77.40;;;23.40;52.10;;;;;;6167436;28;84729;-65
2021/05/22 13:08:28;;;;;;;190.18;70.15;;;23.40;51.90;;;;;;6176930;28;83462;-66
2021/05/22 13:11:28;;;;;;;179.50;64.25;;;23.40;51.80;;;;;;6152044;28;83013;-66
2021/05/22 13:14:29;;;;;;;162.23;59.25;;;23.40;51.50;;;;;;6169868;28;85325;-66
2021/05/22 13:17:29;;;;;;;164.50;57.72;;;23.40;51.40;;;;;;6160007;28;83184;-67
2021/05/22 13:20:30;;;;;;;128.50;49.20;;;23.40;51.40;;;;;;6170838;28;83171;-67
2021/05/22 13:23:30;;;;;;;157.35;55.60;;;23.40;51.30;;;;;;6177719;28;83209;-65
2021/05/22 13:26:31;;;;;;;138.80;49.97;;;23.40;50.90;;;;;;6160107;28;83562;-65
2021/05/22 13:29:31;;;;;;;123.15;45.33;;;23.40;50.70;;;;;;6152207;28;85935;-65
2021/05/22 13:32:33;;;;;;;109.03;41.05;;;23.40;50.50;;;;;;6152172;28;85866;-65
2021/05/22 13:35:34;;;;;;;114.80;39.05;;;23.50;50.70;;;;;;6168050;28;85741;-65
2021/05/22 13:38:35;;;;;;;100.45;36.80;;;23.40;50.70;;;;;;6172691;28;83543;-65
2021/05/22 13:41:35;;;;;;;92.45;34.10;;;23.40;50.50;;;;;;6159168;28;83558;-67
2021/05/22 13:44:36;;;;;;;79.28;29.90;;;23.40;50.70;;;;;;6170654;28;83322;-67
2021/05/22 13:47:37;;;;;;;68.65;24.75;;;23.40;50.20;;;;;;6176631;28;83465;-65
2021/05/22 13:50:37;;;;;;;55.78;20.95;;;23.40;49.50;;;;;;6176566;28;83430;-64
2021/05/22 13:53:38;;;;;;;50.78;19.38;;;23.30;49.70;;;;;;6158641;28;84104;-65
2021/05/22 13:56:39;;;;;;;44.03;17.17;;;23.30;49.10;;;;;;6170956;28;83637;-66
2021/05/22 13:59:39;;;;;;;41.38;16.27;;;23.20;49.00;;;;;;6176403;28;84224;-68
2021/05/22 14:02:40;;;;;;;49.53;16.50;;;23.30;49.40;;;;;;6149586;28;84303;-66
2021/05/22 14:05:40;;;;;;;36.55;15.07;;;23.30;49.40;;;;;;6157704;28;84381;-67
2021/05/22 14:08:41;;;;;;;33.55;13.65;;;23.30;49.00;;;;;;6170059;28;84511;-67
2021/05/22 14:11:42;;;;;;;28.90;11.93;;;23.30;49.00;;;;;;6155798;28;84016;-67
2021/05/22 14:14:43;;;;;;;23.33;11.02;;;23.30;49.10;;;;;;6145963;28;83524;-67
2021/05/22 14:17:43;;;;;;;29.73;11.25;;;23.30;49.10;;;;;;6152102;28;82965;-66
2021/05/22 14:20:44;;;;;;;30.83;10.43;;;23.30;48.70;;;;;;6153509;28;86631;-66
2021/05/22 14:23:44;;;;;;;31.92;10.23;;;23.30;48.60;;;;;;6189389;28;84049;-66
2021/05/22 14:26:48;;;;;;;20.85;8.13;;;23.20;48.40;;;;;;6161983;28;82987;-66
2021/05/22 14:29:48;;;;;;;20.52;8.65;;;23.20;48.40;;;;;;6179926;28;82962;-67
2021/05/22 14:32:49;;;;;;;23.08;8.25;;;23.20;48.40;;;;;;6163287;28;81519;-68
2021/05/22 14:35:49;;;;;;;22.55;8.60;;;23.20;48.80;;;;;;6167643;28;80554;-67
2021/05/22 14:38:50;;;;;;;19.50;7.72;;;23.30;48.50;;;;;;6162995;28;81656;-66
2021/05/22 14:41:50;;;;;;;15.55;7.70;;;23.20;47.80;;;;;;6178984;28;80449;-66
2021/05/22 14:44:51;;;;;;;15.23;6.97;;;23.20;47.80;;;;;;6161786;28;81522;-67
2021/05/22 14:47:52;;;;;;;23.42;7.25;;;23.30;47.90;;;;;;6157613;28;81355;-67
2021/05/22 14:50:52;;;;;;;12.90;6.45;;;23.30;47.80;;;;;;6179662;28;80863;-66
2021/05/22 14:53:53;;;;;;;12.25;6.35;;;23.30;47.50;;;;;;6183788;28;80216;-66
2021/05/22 14:56:54;;;;;;;13.05;6.10;;;23.30;47.50;;;;;;6160680;28;80410;-66
2021/05/22 14:59:54;;;;;;;13.65;6.75;;;23.30;47.90;;;;;;6181203;28;80406;-66
2021/05/22 15:02:55;;;;;;;9.57;5.97;;;23.20;47.80;;;;;;6198732;28;81408;-67
2021/05/22 15:05:55;;;;;;;13.00;5.20;;;23.20;48.10;;;;;;6198010;28;80753;-66
2021/05/22 15:08:56;;;;;;;11.43;5.18;;;23.30;48.20;;;;;;6160681;28;81911;-65
2021/05/22 15:11:56;;;;;;;14.35;5.82;;;23.30;48.30;;;;;;6180582;28;80452;-66
2021/05/22 15:14:57;;;;;;;11.32;4.82;;;23.30;47.90;;;;;;6182777;28;80486;-64
2021/05/22 15:17:57;;;;;;;14.82;5.10;;;23.30;47.60;;;;;;6183145;28;82733;-65
2021/05/22 15:20:58;;;;;;;7.93;4.25;;;23.30;47.40;;;;;;6161775;28;81716;-66
2021/05/22 15:23:58;;;;;;;9.90;4.00;;;23.30;47.60;;;;;;6179860;28;81460;-65
2021/05/22 15:26:59;;;;;;;12.43;4.38;;;23.40;47.50;;;;;;6159842;28;82995;-66